Time;durP1;ratioP1;P1;durP2;ratioP2;P2;SDS_P1;SDS_P2;PMS_P1;PMS_P2;Temp;Humidity;BMP_temperature;BMP_pressure;BME280_temperature;BME280_humidity;BME280_pressure;Samples;Min_cycle;Max_cycle;Signal;HPM_P1;HPM_P2
2022/07/06 00:01:00;;;;;;;3.08;1.25;;;19.40;65.00;;;;;;5023081;28;20029;-67
2022/07/06 00:03:25;;;;;;;8.52;1.40;;;19.30;65.20;;;;;;5013761;28;20033;-67
2022/07/06 00:05:51;;;;;;;5.40;1.38;;;19.30;65.70;;;;;;5014210;28;20057;-67
2022/07/06 00:08:17;;;;;;;2.53;1.10;;;19.30;65.80;;;;;;5013654;28;20081;-68
2022/07/06 00:10:43;;;;;;;3.10;1.30;;;19.30;66.00;;;;;;5009036;28;20034;-66
2022/07/06 00:13:09;;;;;;;2.55;1.30;;;19.30;66.10;;;;;;5013166;28;20034;-66
2022/07/06 00:15:34;;;;;;;2.38;1.33;;;19.20;66.70;;;;;;5001382;28;20114;-67
2022/07/06 00:18:00;;;;;;;6.82;1.98;;;19.20;66.60;;;;;;5009021;28;20030;-67
2022/07/06 00:20:25;;;;;;;3.25;1.30;;;19.10;66.60;;;;;;5006746;28;20026;-67
2022/07/06 00:22:51;;;;;;;1.80;1.30;;;19.20;67.20;;;;;;5013525;28;20026;-66
2022/07/06 00:25:17;;;;;;;3.67;1.30;;;19.10;67.20;;;;;;5003872;28;20478;-67
2022/07/06 00:27:42;;;;;;;2.60;1.17;;;19.10;67.10;;;;;;5002468;28;20054;-67
2022/07/06 00:30:08;;;;;;;1.55;1.15;;;19.10;67.50;;;;;;5009229;28;20113;-66
2022/07/06 00:32:34;;;;;;;3.88;1.25;;;19.10;67.50;;;;;;5011794;28;20038;-67
2022/07/06 00:34:59;;;;;;;2.80;1.30;;;19.10;67.60;;;;;;5014079;28;20033;-67
2022/07/06 00:37:25;;;;;;;3.35;1.10;;;19.00;67.60;;;;;;5010210;28;20033;-67
2022/07/06 00:39:50;;;;;;;5.43;1.88;;;19.00;67.70;;;;;;5013836;28;20488;-67
2022/07/06 00:42:16;;;;;;;3.10;1.20;;;19.00;67.90;;;;;;5012336;28;20461;-67
2022/07/06 00:44:41;;;;;;;4.60;1.92;;;19.00;68.00;;;;;;5012885;28;20026;-66
2022/07/06 00:47:07;;;;;;;2.58;1.20;;;19.00;68.00;;;;;;5011965;28;20025;-67
2022/07/06 00:52:18;;;;;;;;;;;19.00;68.30;;;;;;5003662;28;20053;-67
2022/07/06 00:54:45;;;;;;;4.32;1.38;;;19.00;67.40;;;;;;4994016;28;19906;-67
2022/07/06 00:57:10;;;;;;;4.50;1.45;;;18.90;68.10;;;;;;5002806;28;20032;-67
2022/07/06 00:59:36;;;;;;;3.75;1.77;;;18.90;68.40;;;;;;5013069;28;20029;-67
2022/07/06 01:02:02;;;;;;;4.30;1.73;;;18.90;68.60;;;;;;5009889;28;20446;-67
2022/07/06 01:04:28;;;;;;;1.67;1.20;;;18.90;68.70;;;;;;5013066;28;20489;-67
2022/07/06 01:06:54;;;;;;;1.63;1.15;;;18.90;68.90;;;;;;5012501;28;20124;-67
2022/07/06 01:09:19;;;;;;;2.45;1.50;;;18.90;69.00;;;;;;4996080;28;20046;-67
2022/07/06 01:11:45;;;;;;;2.45;1.23;;;18.90;69.10;;;;;;4999570;28;20930;-67
2022/07/06 01:14:12;;;;;;;2.05;1.17;;;18.90;69.30;;;;;;5002671;28;20057;-66
2022/07/06 01:16:38;;;;;;;2.53;1.35;;;18.90;69.30;;;;;;5012204;28;20116;-67
2022/07/06 01:19:03;;;;;;;2.78;1.50;;;18.90;69.40;;;;;;5009560;28;20029;-67
2022/07/06 01:21:29;;;;;;;6.10;1.55;;;18.90;69.50;;;;;;5006496;28;20499;-67
2022/07/06 01:23:54;;;;;;;3.85;1.40;;;18.90;69.50;;;;;;5010972;28;20014;-67
2022/07/06 01:26:21;;;;;;;1.75;1.23;;;18.90;69.60;;;;;;5005921;28;20378;-67
2022/07/06 01:28:51;;;;;;;4.07;1.90;;;18.90;69.70;;;;;;5012572;28;20065;-67
2022/07/06 01:31:19;;;;;;;2.75;1.55;;;19.00;69.80;;;;;;5010878;28;20049;-67
2022/07/06 01:33:45;;;;;;;2.42;1.30;;;18.90;69.70;;;;;;5011224;28;20049;-67
2022/07/06 01:36:11;;;;;;;4.25;1.48;;;18.90;69.80;;;;;;5011819;28;20049;-67
2022/07/06 01:38:45;;;;;;;2.20;1.13;;;19.00;70.00;;;;;;5012034;28;20141;-67
2022/07/06 01:41:10;;;;;;;2.30;1.30;;;18.90;70.00;;;;;;5010246;28;20112;-67
2022/07/06 01:43:36;;;;;;;3.97;1.50;;;18.90;70.00;;;;;;5010517;28;20046;-67
2022/07/06 01:46:01;;;;;;;4.65;1.30;;;18.90;69.90;;;;;;5011130;28;20113;-67
2022/07/06 01:48:27;;;;;;;4.40;1.58;;;18.90;69.80;;;;;;5011557;28;20022;-67
2022/07/06 01:50:52;;;;;;;3.55;1.73;;;18.90;69.90;;;;;;5011653;28;20034;-67
2022/07/06 01:53:18;;;;;;;5.10;1.48;;;19.00;69.80;;;;;;5011886;28;20034;-67
2022/07/06 01:55:44;;;;;;;2.60;1.20;;;18.90;69.90;;;;;;5012348;28;20021;-67
2022/07/06 01:58:09;;;;;;;2.08;1.40;;;19.00;70.00;;;;;;5008045;28;20129;-67
2022/07/06 02:00:35;;;;;;;2.00;1.40;;;19.00;70.10;;;;;;4998570;28;20030;-67
2022/07/06 02:03:00;;;;;;;2.72;1.60;;;19.00;70.10;;;;;;5010835;28;20543;-67
2022/07/06 02:05:26;;;;;;;4.32;1.45;;;19.00;69.90;;;;;;5011814;28;20041;-66
2022/07/06 02:07:52;;;;;;;3.22;1.27;;;19.00;69.90;;;;;;5010743;28;20084;-67
2022/07/06 02:10:18;;;;;;;2.78;1.48;;;19.00;70.00;;;;;;5011332;28;20522;-66
2022/07/06 02:12:43;;;;;;;2.00;1.15;;;19.00;70.00;;;;;;5010492;28;20503;-67
2022/07/06 02:15:09;;;;;;;4.55;1.33;;;19.00;69.80;;;;;;5012366;28;20029;-67
2022/07/06 02:17:35;;;;;;;2.13;1.30;;;19.00;69.70;;;;;;5010320;28;20065;-65
2022/07/06 02:20:00;;;;;;;2.90;1.60;;;19.00;69.40;;;;;;5011771;28;20108;-66
2022/07/06 02:22:26;;;;;;;3.83;1.35;;;19.00;69.60;;;;;;5011110;28;20106;-66
2022/07/06 02:24:51;;;;;;;2.20;1.35;;;19.00;69.50;;;;;;5011589;28;20084;-66
2022/07/06 02:27:17;;;;;;;4.78;2.00;;;19.00;69.70;;;;;;5011015;28;20037;-66
2022/07/06 02:29:42;;;;;;;3.33;1.60;;;19.00;70.10;;;;;;5007372;28;20023;-67
2022/07/06 02:32:08;;;;;;;4.25;1.80;;;18.90;70.70;;;;;;5002318;28;20069;-67
2022/07/06 02:34:33;;;;;;;3.05;1.48;;;19.00;71.10;;;;;;5009558;28;20026;-68
2022/07/06 02:37:00;;;;;;;4.70;1.90;;;19.00;71.50;;;;;;5001250;28;20393;-68
2022/07/06 02:39:25;;;;;;;7.35;1.92;;;19.00;71.40;;;;;;5008401;28;20060;-67
2022/07/06 02:41:51;;;;;;;3.20;1.60;;;18.90;72.00;;;;;;4999524;28;20030;-67
2022/07/06 02:44:16;;;;;;;3.17;1.58;;;18.90;72.30;;;;;;5007377;28;20038;-68
2022/07/06 02:46:42;;;;;;;4.78;1.67;;;18.70;73.60;;;;;;4998120;28;20026;-68
2022/07/06 02:49:07;;;;;;;2.15;1.27;;;18.60;74.50;;;;;;4994674;28;20030;-68
2022/07/06 02:51:33;;;;;;;4.30;1.70;;;18.60;75.20;;;;;;5001589;28;20042;-67
2022/07/06 02:53:58;;;;;;;3.95;2.00;;;18.50;75.80;;;;;;4995442;28;20084;-67
2022/07/06 02:56:24;;;;;;;3.53;1.90;;;18.50;76.30;;;;;;4996121;28;20072;-67
2022/07/06 02:58:49;;;;;;;3.78;1.60;;;18.50;76.90;;;;;;5011963;28;20516;-67
2022/07/06 03:01:15;;;;;;;3.08;1.50;;;18.50;77.40;;;;;;5010031;28;20488;-67
2022/07/06 03:03:40;;;;;;;3.50;1.45;;;18.50;77.60;;;;;;5011651;28;20478;-67
2022/07/06 03:06:06;;;;;;;2.78;1.60;;;18.50;77.90;;;;;;5010321;28;20452;-67
2022/07/06 03:08:32;;;;;;;5.03;2.10;;;18.50;78.40;;;;;;5010501;28;20077;-67
2022/07/06 03:10:57;;;;;;;5.28;2.13;;;18.50;78.70;;;;;;5004247;28;20034;-68
2022/07/06 03:13:23;;;;;;;3.35;1.67;;;18.50;79.00;;;;;;5011670;28;20029;-68
2022/07/06 03:15:48;;;;;;;5.55;1.98;;;18.50;79.10;;;;;;5009034;28;20045;-68
2022/07/06 03:18:14;;;;;;;5.18;1.77;;;18.40;79.10;;;;;;5008770;28;20053;-68
2022/07/06 03:20:39;;;;;;;2.30;1.40;;;18.40;79.50;;;;;;4991909;28;20031;-68
2022/07/06 03:23:05;;;;;;;2.75;1.45;;;18.40;79.60;;;;;;5008396;28;20113;-68
2022/07/06 03:25:32;;;;;;;2.45;1.50;;;18.40;79.50;;;;;;5005978;28;20065;-68
2022/07/06 03:27:57;;;;;;;4.45;2.03;;;18.40;79.80;;;;;;5014099;28;20154;-68
2022/07/06 03:30:23;;;;;;;3.22;1.60;;;18.50;80.00;;;;;;5014726;28;20056;-68
2022/07/06 03:32:49;;;;;;;5.65;1.58;;;18.50;80.00;;;;;;5014121;28;20102;-68
2022/07/06 03:35:14;;;;;;;7.25;1.80;;;18.60;80.10;;;;;;5003283;28;20026;-68
2022/07/06 03:37:40;;;;;;;5.93;1.73;;;18.60;80.00;;;;;;5013178;28;20034;-68
2022/07/06 03:40:06;;;;;;;2.70;1.38;;;18.70;80.00;;;;;;5012813;28;20623;-68
2022/07/06 03:42:32;;;;;;;3.97;1.77;;;18.70;79.90;;;;;;5026813;28;20079;-68
2022/07/06 03:44:57;;;;;;;4.53;1.67;;;18.70;80.20;;;;;;5014307;28;20125;-68
2022/07/06 03:47:23;;;;;;;4.00;1.40;;;18.70;79.90;;;;;;5013076;28;20493;-67
2022/07/06 03:49:48;;;;;;;3.33;1.80;;;18.70;79.90;;;;;;5014125;28;20029;-68
2022/07/06 03:52:14;;;;;;;2.17;1.33;;;18.70;79.80;;;;;;5012742;28;20038;-67
2022/07/06 03:54:39;;;;;;;4.53;1.50;;;18.70;79.70;;;;;;5002927;28;20416;-67
2022/07/06 03:57:05;;;;;;;8.82;2.20;;;18.70;79.80;;;;;;5014148;28;20121;-68
2022/07/06 03:59:30;;;;;;;2.95;1.85;;;18.70;79.70;;;;;;5013848;28;20492;-68
2022/07/06 04:01:56;;;;;;;2.80;1.60;;;18.60;79.70;;;;;;5013522;28;20022;-68
2022/07/06 04:04:21;;;;;;;4.70;2.35;;;18.60;79.60;;;;;;5013965;28;20064;-68
2022/07/06 04:06:47;;;;;;;4.45;1.98;;;18.60;80.50;;;;;;5013884;28;20033;-68
2022/07/06 04:09:12;;;;;;;3.03;1.80;;;18.60;80.10;;;;;;5012474;28;20523;-68
2022/07/06 04:11:38;;;;;;;2.75;1.60;;;18.60;80.00;;;;;;5013525;28;20527;-68
2022/07/06 04:14:04;;;;;;;3.05;1.48;;;18.60;79.80;;;;;;4997112;28;20027;-68
2022/07/06 04:16:29;;;;;;;5.55;1.80;;;18.70;80.10;;;;;;4999906;28;20058;-68
2022/07/06 04:18:55;;;;;;;5.13;1.77;;;18.70;80.10;;;;;;4997965;28;20526;-68
2022/07/06 04:21:20;;;;;;;6.45;2.72;;;18.60;79.70;;;;;;4998352;28;20065;-68
2022/07/06 04:23:46;;;;;;;3.70;1.58;;;18.60;80.00;;;;;;5012674;28;20057;-69
2022/07/06 04:26:12;;;;;;;4.03;1.80;;;18.70;80.40;;;;;;5013200;28;20489;-70
2022/07/06 04:28:37;;;;;;;5.38;1.90;;;18.70;79.60;;;;;;5021145;28;20470;-74
2022/07/06 04:31:03;;;;;;;4.57;1.90;;;18.80;79.30;;;;;;5016872;28;20074;-73
2022/07/06 04:33:28;;;;;;;3.05;1.70;;;18.80;79.00;;;;;;5013663;28;20073;-71
2022/07/06 04:35:54;;;;;;;3.35;1.77;;;18.70;79.20;;;;;;5002628;28;20049;-72
2022/07/06 04:38:20;;;;;;;2.42;1.30;;;18.70;79.10;;;;;;5011526;28;20026;-70
2022/07/06 04:40:46;;;;;;;5.20;1.92;;;18.70;79.20;;;;;;5009320;28;20041;-68
2022/07/06 04:43:12;;;;;;;5.93;2.58;;;18.70;79.30;;;;;;5013049;28;20093;-67
2022/07/06 04:45:37;;;;;;;3.45;1.50;;;18.80;79.00;;;;;;5006552;28;20105;-66
2022/07/06 04:48:03;;;;;;;2.97;1.70;;;18.80;78.70;;;;;;5009352;28;20030;-65
2022/07/06 04:50:29;;;;;;;4.28;1.90;;;18.70;79.00;;;;;;4994013;28;20470;-65
2022/07/06 04:52:55;;;;;;;2.25;1.60;;;18.70;79.10;;;;;;5006149;28;20124;-66
2022/07/06 04:55:20;;;;;;;4.60;1.83;;;18.70;78.90;;;;;;5013495;28;20633;-65
2022/07/06 04:57:46;;;;;;;2.03;1.35;;;18.60;79.00;;;;;;5011167;28;20034;-64
2022/07/06 05:00:12;;;;;;;4.63;1.55;;;18.60;79.10;;;;;;5008575;28;20038;-65
2022/07/06 05:02:38;;;;;;;2.25;1.58;;;18.70;78.80;;;;;;5012450;28;20037;-65
2022/07/06 05:05:04;;;;;;;3.20;2.08;;;18.60;78.70;;;;;;5011047;28;20034;-65
2022/07/06 05:07:30;;;;;;;3.55;1.48;;;18.60;78.90;;;;;;4998822;28;20114;-65
2022/07/06 05:09:56;;;;;;;3.60;1.60;;;18.60;79.00;;;;;;4993634;28;20112;-65
2022/07/06 05:12:22;;;;;;;3.00;1.60;;;18.50;79.10;;;;;;5005234;28;20038;-65
2022/07/06 05:14:47;;;;;;;3.55;1.50;;;18.50;79.10;;;;;;5013270;28;20022;-65
2022/07/06 05:17:13;;;;;;;5.88;1.38;;;18.50;79.20;;;;;;5012083;28;20025;-65
2022/07/06 05:19:38;;;;;;;9.82;1.95;;;18.50;79.10;;;;;;5012407;28;20026;-66
2022/07/06 05:22:04;;;;;;;3.83;1.50;;;18.50;79.40;;;;;;5009437;28;20125;-65
2022/07/06 05:24:29;;;;;;;3.83;1.40;;;18.40;79.20;;;;;;5008465;28;20369;-65
2022/07/06 05:26:55;;;;;;;4.63;1.98;;;18.40;79.50;;;;;;5001330;28;20030;-66
2022/07/06 05:29:21;;;;;;;4.82;1.42;;;18.40;79.60;;;;;;5009145;28;20106;-66
2022/07/06 05:31:46;;;;;;;4.05;1.38;;;18.40;79.40;;;;;;5000217;28;20070;-66
2022/07/06 05:34:12;;;;;;;8.55;1.90;;;18.40;79.60;;;;;;5010432;28;20030;-66
2022/07/06 05:36:37;;;;;;;5.30;1.55;;;18.40;79.80;;;;;;4998273;28;20121;-66
2022/07/06 05:39:03;;;;;;;6.95;2.22;;;18.50;79.50;;;;;;5012756;28;20026;-66
2022/07/06 05:41:28;;;;;;;1.77;1.40;;;18.50;79.20;;;;;;5011693;28;20049;-65
2022/07/06 05:43:54;;;;;;;4.38;1.40;;;18.50;79.00;;;;;;4995752;28;20113;-66
2022/07/06 05:46:19;;;;;;;4.13;1.85;;;18.50;78.60;;;;;;4994433;28;20029;-66
2022/07/06 05:51:29;;;;;;;2.70;1.40;;;18.50;78.60;;;;;;5011826;28;20103;-66
2022/07/06 05:53:55;;;;;;;4.13;1.75;;;18.50;78.60;;;;;;4996564;28;20282;-66
2022/07/06 05:56:20;;;;;;;3.67;1.40;;;18.50;79.00;;;;;;4999336;28;20026;-68
2022/07/06 05:58:46;;;;;;;3.38;1.50;;;18.50;78.80;;;;;;5012081;28;20018;-66
2022/07/06 06:01:11;;;;;;;5.20;1.42;;;18.60;78.60;;;;;;5009078;28;20025;-66
2022/07/06 06:03:37;;;;;;;3.28;1.50;;;18.70;78.60;;;;;;5008695;28;20064;-66
2022/07/06 06:06:02;;;;;;;14.98;2.45;;;18.70;78.50;;;;;;5009929;28;20041;-66
2022/07/06 06:08:28;;;;;;;30.05;4.57;;;18.70;78.50;;;;;;5010510;28;20516;-64
2022/07/06 06:10:54;;;;;;;17.20;3.40;;;18.80;78.20;;;;;;5008784;28;20030;-65
2022/07/06 06:13:19;;;;;;;20.10;3.38;;;18.90;78.00;;;;;;5011742;28;20033;-65
2022/07/06 06:15:45;;;;;;;13.07;2.17;;;18.90;77.90;;;;;;5010192;28;20060;-65
2022/07/06 06:18:11;;;;;;;5.25;1.60;;;19.00;77.80;;;;;;5010097;28;20046;-65
2022/07/06 06:20:36;;;;;;;4.78;1.98;;;19.10;77.60;;;;;;5008430;28;20084;-64
2022/07/06 06:23:04;;;;;;;6.78;2.00;;;19.10;77.40;;;;;;5010765;28;20030;-64
2022/07/06 06:25:30;;;;;;;6.43;1.83;;;19.10;77.20;;;;;;5008730;28;20401;-64
2022/07/06 06:27:56;;;;;;;5.63;1.67;;;19.20;77.00;;;;;;5024960;28;20049;-66
2022/07/06 06:30:21;;;;;;;4.32;1.77;;;19.20;77.00;;;;;;5008593;28;20456;-66
2022/07/06 06:32:48;;;;;;;5.13;1.73;;;19.20;77.00;;;;;;5008764;28;20445;-65
2022/07/06 06:35:13;;;;;;;4.03;1.80;;;19.30;77.00;;;;;;5009538;28;20428;-65
2022/07/06 06:37:39;;;;;;;3.25;1.40;;;19.40;77.00;;;;;;5009494;28;20033;-65
2022/07/06 06:40:05;;;;;;;4.25;1.50;;;19.40;76.90;;;;;;5011034;28;20026;-65
2022/07/06 06:42:32;;;;;;;5.35;2.05;;;19.50;76.80;;;;;;5009352;28;20080;-65
2022/07/06 06:44:57;;;;;;;3.00;1.75;;;19.50;76.40;;;;;;4997760;28;20026;-65
2022/07/06 06:47:23;;;;;;;7.07;2.35;;;19.50;76.50;;;;;;4995144;28;20527;-65
2022/07/06 06:49:49;;;;;;;5.10;1.75;;;19.60;76.70;;;;;;5011095;28;20045;-64
2022/07/06 06:52:14;;;;;;;4.88;1.55;;;19.70;77.00;;;;;;5011130;28;20084;-65
2022/07/06 06:54:40;;;;;;;7.60;1.60;;;19.80;75.90;;;;;;5010993;28;20075;-65
2022/07/06 06:57:06;;;;;;;6.63;1.90;;;19.80;75.60;;;;;;5010781;28;20034;-65
2022/07/06 06:59:31;;;;;;;4.50;1.77;;;19.70;75.50;;;;;;5004579;28;20026;-65
2022/07/06 07:01:57;;;;;;;5.53;2.13;;;19.70;75.20;;;;;;5011883;28;20026;-66
2022/07/06 07:04:23;;;;;;;4.43;1.38;;;19.70;75.40;;;;;;5010458;28;20022;-66
2022/07/06 07:06:48;;;;;;;4.40;1.80;;;19.80;75.30;;;;;;5007515;28;20400;-66
2022/07/06 07:09:14;;;;;;;4.97;1.55;;;19.80;75.30;;;;;;5015064;28;20042;-66
2022/07/06 07:11:40;;;;;;;2.95;1.60;;;19.90;75.00;;;;;;5014406;28;20038;-66
2022/07/06 07:14:05;;;;;;;3.45;1.30;;;19.90;74.80;;;;;;5011687;28;20040;-66
2022/07/06 07:16:31;;;;;;;3.35;1.67;;;20.00;74.60;;;;;;5013793;28;20022;-67
2022/07/06 07:18:57;;;;;;;4.80;1.50;;;20.00;74.10;;;;;;5014415;28;20450;-66
2022/07/06 07:21:22;;;;;;;3.85;1.67;;;20.00;74.00;;;;;;5012865;28;20022;-66
2022/07/06 07:23:50;;;;;;;2.20;1.25;;;20.00;73.10;;;;;;5012222;28;20812;-66
2022/07/06 07:26:15;;;;;;;4.60;1.60;;;20.00;73.20;;;;;;5013123;28;20101;-66
2022/07/06 07:28:41;;;;;;;2.92;1.80;;;20.10;72.90;;;;;;5008944;28;20117;-66
2022/07/06 07:31:07;;;;;;;3.70;1.50;;;20.20;73.40;;;;;;4996213;28;20497;-65
2022/07/06 07:33:32;;;;;;;3.08;1.70;;;20.30;73.20;;;;;;5011729;28;20503;-66
2022/07/06 07:35:58;;;;;;;2.58;1.48;;;20.50;72.70;;;;;;5012299;28;20354;-66
2022/07/06 07:38:23;;;;;;;3.55;1.65;;;20.60;72.10;;;;;;5012283;28;20083;-66
2022/07/06 07:40:49;;;;;;;4.40;1.55;;;20.70;71.20;;;;;;5012633;28;20025;-66
2022/07/06 07:43:14;;;;;;;5.10;1.73;;;20.70;71.20;;;;;;5011623;28;20041;-66
2022/07/06 07:45:40;;;;;;;3.40;1.42;;;20.70;71.00;;;;;;5009023;28;20030;-66
2022/07/06 07:48:06;;;;;;;4.70;1.30;;;20.70;69.80;;;;;;5024370;28;20032;-66
2022/07/06 07:50:31;;;;;;;6.00;1.98;;;20.70;70.30;;;;;;5013626;28;20017;-66
2022/07/06 07:52:57;;;;;;;3.70;1.30;;;20.80;69.70;;;;;;5011379;28;20026;-66
2022/07/06 07:55:23;;;;;;;3.63;1.73;;;20.80;69.30;;;;;;5012689;28;20033;-66
2022/07/06 07:57:48;;;;;;;3.65;1.83;;;20.90;69.50;;;;;;5012229;28;20041;-65
2022/07/06 08:00:14;;;;;;;3.75;2.10;;;21.10;69.90;;;;;;5012356;28;20117;-65
2022/07/06 08:02:40;;;;;;;4.15;2.22;;;21.20;69.20;;;;;;5012384;28;20041;-66
2022/07/06 08:05:06;;;;;;;2.83;1.38;;;21.30;67.70;;;;;;5010201;28;20022;-66
2022/07/06 08:07:31;;;;;;;5.28;1.80;;;21.40;67.40;;;;;;5011827;28;20030;-66
2022/07/06 08:09:57;;;;;;;5.85;1.73;;;21.40;66.60;;;;;;5010084;28;20544;-65
2022/07/06 08:12:22;;;;;;;5.25;2.00;;;21.50;65.80;;;;;;5011711;28;20176;-66
2022/07/06 08:14:48;;;;;;;3.72;1.50;;;21.60;66.20;;;;;;5011834;28;20032;-66
2022/07/06 08:17:16;;;;;;;3.33;1.10;;;21.70;65.70;;;;;;5012450;28;20021;-65
2022/07/06 08:19:42;;;;;;;3.95;1.48;;;21.80;64.80;;;;;;5012461;28;20034;-65
2022/07/06 08:22:08;;;;;;;5.80;1.65;;;21.70;64.30;;;;;;5013135;28;20037;-65
2022/07/06 08:24:36;;;;;;;3.58;1.70;;;21.70;64.80;;;;;;5009302;28;20026;-65
2022/07/06 08:27:03;;;;;;;3.15;1.63;;;21.80;65.60;;;;;;5011309;28;20030;-65
2022/07/06 08:29:29;;;;;;;4.78;1.60;;;21.90;65.00;;;;;;5011478;28;20359;-65
2022/07/06 08:31:54;;;;;;;4.85;1.50;;;22.00;64.50;;;;;;5011669;28;20045;-65
2022/07/06 08:34:20;;;;;;;3.33;1.48;;;22.00;64.80;;;;;;5012170;28;23272;-65
2022/07/06 08:36:46;;;;;;;2.97;1.40;;;22.10;63.50;;;;;;5010751;28;20032;-65
2022/07/06 08:39:11;;;;;;;3.28;1.02;;;22.10;63.30;;;;;;5010887;28;20040;-65
2022/07/06 08:41:40;;;;;;;3.05;1.35;;;22.20;62.40;;;;;;5011794;28;20029;-64
2022/07/06 08:44:06;;;;;;;4.07;1.45;;;22.00;61.90;;;;;;5012510;28;20034;-64
2022/07/06 08:46:32;;;;;;;10.43;1.90;;;22.00;62.60;;;;;;5011451;28;20057;-64
2022/07/06 08:48:58;;;;;;;2.47;1.48;;;22.00;62.50;;;;;;5001419;28;20057;-65
2022/07/06 08:51:24;;;;;;;5.35;2.00;;;22.10;62.60;;;;;;5010790;28;20046;-64
2022/07/06 08:53:51;;;;;;;3.17;1.67;;;22.20;62.30;;;;;;5010092;28;20321;-65
2022/07/06 08:56:18;;;;;;;3.40;1.00;;;22.20;61.40;;;;;;5011591;28;20084;-65
2022/07/06 08:58:44;;;;;;;3.90;1.13;;;22.30;59.70;;;;;;5010928;28;20434;-64
2022/07/06 09:01:10;;;;;;;3.60;1.25;;;22.30;59.90;;;;;;5008912;28;20033;-64
2022/07/06 09:03:36;;;;;;;2.80;1.05;;;22.30;59.30;;;;;;5012628;28;20434;-65
2022/07/06 09:06:02;;;;;;;2.05;1.33;;;22.30;58.40;;;;;;5011764;28;20109;-65
2022/07/06 09:08:30;;;;;;;2.72;1.40;;;22.20;58.10;;;;;;5012885;28;20133;-65
2022/07/06 09:10:56;;;;;;;3.78;2.13;;;22.10;58.00;;;;;;5012041;28;20029;-65
2022/07/06 09:13:24;;;;;;;2.35;1.55;;;22.10;59.00;;;;;;4993513;28;20053;-65
2022/07/06 09:15:50;;;;;;;1.33;1.00;;;22.10;58.70;;;;;;5000145;28;20022;-64
2022/07/06 09:18:15;;;;;;;6.15;1.77;;;22.20;58.10;;;;;;5011882;28;20029;-64
2022/07/06 09:20:42;;;;;;;2.97;1.20;;;22.20;58.40;;;;;;5013006;28;20022;-65
2022/07/06 09:23:07;;;;;;;2.17;1.35;;;22.20;57.90;;;;;;5011142;28;20030;-64
2022/07/06 09:25:35;;;;;;;5.50;1.65;;;22.20;58.30;;;;;;5012728;28;20045;-65
2022/07/06 09:28:01;;;;;;;4.53;1.30;;;22.30;57.90;;;;;;5008354;28;20477;-65
2022/07/06 09:30:28;;;;;;;1.98;1.00;;;22.40;58.20;;;;;;5012757;28;20168;-65
2022/07/06 09:32:57;;;;;;;4.72;1.90;;;22.50;57.90;;;;;;5007386;28;20041;-65
2022/07/06 09:35:29;;;;;;;2.28;0.77;;;22.70;57.60;;;;;;5012788;28;20473;-65
2022/07/06 09:38:05;;;;;;;2.08;1.20;;;22.80;55.50;;;;;;5012004;28;20045;-65
2022/07/06 09:40:34;;;;;;;5.07;1.75;;;22.80;54.30;;;;;;5012109;28;20026;-65
2022/07/06 09:43:18;;;;;;;2.80;1.00;;;22.70;54.00;;;;;;5011802;28;20386;-65
2022/07/06 09:45:54;;;;;;;1.75;0.98;;;22.60;53.20;;;;;;5010186;28;20442;-65
2022/07/06 09:48:21;;;;;;;2.13;0.88;;;22.60;53.20;;;;;;5010960;28;20385;-65
2022/07/06 09:50:53;;;;;;;2.25;0.90;;;22.60;53.50;;;;;;5011184;28;20049;-65
2022/07/06 09:53:19;;;;;;;1.58;0.75;;;22.50;53.60;;;;;;5012113;28;20347;-65
2022/07/06 09:55:46;;;;;;;2.08;1.02;;;22.50;54.10;;;;;;5012352;28;20029;-65
2022/07/06 09:58:13;;;;;;;3.05;1.02;;;22.50;53.90;;;;;;5011498;28;20125;-64
2022/07/06 10:00:38;;;;;;;4.22;1.17;;;22.50;54.00;;;;;;5008896;28;20029;-65
2022/07/06 10:03:05;;;;;;;3.13;1.30;;;22.50;54.30;;;;;;5010337;28;20389;-64
2022/07/06 10:05:31;;;;;;;3.38;1.20;;;22.60;53.90;;;;;;5010222;28;20087;-65
2022/07/06 10:07:59;;;;;;;3.22;1.27;;;22.50;54.30;;;;;;5011365;28;20492;-65
2022/07/06 10:10:27;;;;;;;2.22;1.20;;;22.50;54.40;;;;;;5010853;28;20528;-65
2022/07/06 10:12:58;;;;;;;2.78;1.30;;;22.50;54.90;;;;;;5010406;28;20070;-65
2022/07/06 10:15:28;;;;;;;2.38;1.00;;;22.40;55.20;;;;;;5012014;28;20153;-65
2022/07/06 10:17:56;;;;;;;1.63;1.05;;;22.40;55.30;;;;;;5010374;28;20469;-65
2022/07/06 10:20:22;;;;;;;1.83;1.00;;;22.40;55.70;;;;;;4995664;28;20038;-65
2022/07/06 10:22:50;;;;;;;3.78;1.63;;;22.40;55.00;;;;;;5012411;28;20115;-65
2022/07/06 10:25:17;;;;;;;5.28;1.63;;;22.40;55.60;;;;;;5012139;28;20069;-65
2022/07/06 10:27:44;;;;;;;2.78;1.10;;;22.40;55.80;;;;;;5011128;28;20022;-64
2022/07/06 10:30:10;;;;;;;7.55;1.30;;;22.40;56.00;;;;;;5009196;28;20029;-64
2022/07/06 10:32:38;;;;;;;3.35;1.20;;;22.40;56.60;;;;;;5005179;28;20486;-64
2022/07/06 10:35:05;;;;;;;1.92;1.10;;;22.50;57.40;;;;;;5010313;28;20646;-64
2022/07/06 10:37:32;;;;;;;3.13;1.23;;;22.60;57.30;;;;;;5011116;28;20026;-64
2022/07/06 10:42:51;;;;;;;3.45;1.15;;;22.80;57.10;;;;;;5011057;28;20109;-65
2022/07/06 10:45:37;;;;;;;1.38;0.90;;;22.90;57.20;;;;;;5011985;28;20052;-65
2022/07/06 10:48:11;;;;;;;5.07;1.30;;;23.00;56.70;;;;;;5009774;28;20104;-64
2022/07/06 10:50:38;;;;;;;2.15;1.38;;;22.90;56.70;;;;;;5011736;28;20038;-65
2022/07/06 10:53:11;;;;;;;3.97;1.00;;;22.90;56.50;;;;;;5009749;28;20034;-65
2022/07/06 10:55:39;;;;;;;2.13;1.27;;;22.90;56.10;;;;;;5011518;28;20068;-65
2022/07/06 10:58:05;;;;;;;3.60;1.30;;;22.90;56.10;;;;;;5010966;28;20041;-65
2022/07/06 11:00:54;;;;;;;2.90;1.20;;;23.00;55.80;;;;;;5011713;28;20037;-65
2022/07/06 11:04:08;;;;;;;4.90;1.33;;;23.00;56.20;;;;;;5011730;28;20030;-65
2022/07/06 11:06:39;;;;;;;3.15;1.42;;;22.90;55.70;;;;;;5008865;28;20026;-65
2022/07/06 11:09:09;;;;;;;1.60;1.02;;;22.80;56.60;;;;;;5010865;28;20099;-64
2022/07/06 11:11:38;;;;;;;5.63;1.42;;;22.90;56.30;;;;;;5009887;28;20539;-64
2022/07/06 11:14:17;;;;;;;2.08;1.05;;;23.00;56.00;;;;;;5010626;28;20034;-65
2022/07/06 11:16:48;;;;;;;2.22;0.98;;;23.10;55.80;;;;;;5010773;28;20038;-64
2022/07/06 11:19:17;;;;;;;3.88;1.42;;;23.30;55.20;;;;;;5002055;28;20063;-64
2022/07/06 11:21:57;;;;;;;3.75;1.00;;;23.30;54.20;;;;;;4998629;28;20533;-64
2022/07/06 11:24:26;;;;;;;3.60;0.93;;;23.30;54.50;;;;;;4993839;28;20045;-64
2022/07/06 11:26:53;;;;;;;3.03;1.02;;;23.30;54.40;;;;;;5002855;28;20034;-65
2022/07/06 11:29:22;;;;;;;5.20;1.42;;;23.20;54.90;;;;;;5011666;28;20060;-64
2022/07/06 11:31:50;;;;;;;5.75;1.20;;;23.20;55.50;;;;;;5009924;28;20042;-65
2022/07/06 11:34:24;;;;;;;4.53;1.40;;;23.00;55.00;;;;;;5010916;28;20026;-65
2022/07/06 11:36:56;;;;;;;2.85;1.17;;;22.90;55.50;;;;;;5007882;28;20037;-65
2022/07/06 11:39:22;;;;;;;3.63;1.10;;;22.90;56.00;;;;;;5011284;28;20145;-65
2022/07/06 11:41:47;;;;;;;3.08;1.00;;;22.90;55.80;;;;;;5009881;28;20113;-65
2022/07/06 11:44:13;;;;;;;7.30;1.95;;;23.00;55.40;;;;;;5009996;28;20541;-64
2022/07/06 11:46:38;;;;;;;3.25;0.90;;;23.00;55.50;;;;;;5011004;28;20049;-64
2022/07/06 11:49:08;;;;;;;4.65;1.13;;;23.10;55.70;;;;;;5014544;28;20026;-64
2022/07/06 11:51:37;;;;;;;3.40;1.80;;;23.30;55.40;;;;;;5010938;28;20045;-64
2022/07/06 11:54:21;;;;;;;4.55;1.20;;;23.40;54.90;;;;;;5007227;28;20591;-64
2022/07/06 11:56:52;;;;;;;2.08;0.93;;;23.40;53.60;;;;;;5012871;28;20474;-64
2022/07/06 11:59:32;;;;;;;2.97;1.10;;;23.30;54.30;;;;;;5013495;28;20048;-65
2022/07/06 12:02:05;;;;;;;3.85;0.93;;;23.30;53.70;;;;;;4995126;28;20044;-65
2022/07/06 12:04:33;;;;;;;3.40;0.95;;;23.30;54.40;;;;;;5017240;28;20033;-64
2022/07/06 12:07:11;;;;;;;2.58;1.00;;;23.40;54.10;;;;;;5010731;28;20045;-65
2022/07/06 12:09:38;;;;;;;2.05;1.02;;;23.60;53.90;;;;;;5022803;28;20042;-65
2022/07/06 12:12:05;;;;;;;3.17;0.80;;;23.60;53.80;;;;;;5009591;28;20092;-65
2022/07/06 12:14:32;;;;;;;3.08;0.80;;;23.70;53.50;;;;;;5013465;28;20094;-65
2022/07/06 12:17:06;;;;;;;4.88;0.90;;;23.60;53.70;;;;;;5010497;28;20034;-65
2022/07/06 12:19:32;;;;;;;3.25;1.00;;;23.60;53.90;;;;;;5007743;28;20050;-65
2022/07/06 12:21:58;;;;;;;4.95;0.98;;;23.60;53.90;;;;;;5004553;28;20064;-65
2022/07/06 12:24:26;;;;;;;3.55;0.90;;;23.60;54.10;;;;;;5011408;28;20097;-65
2022/07/06 12:26:53;;;;;;;2.88;1.00;;;23.60;54.10;;;;;;5006093;28;20092;-65
2022/07/06 12:29:21;;;;;;;2.47;1.40;;;23.60;53.10;;;;;;5006711;28;20038;-65
2022/07/06 12:31:56;;;;;;;2.30;0.90;;;23.40;53.60;;;;;;5009324;28;20053;-65
2022/07/06 12:34:24;;;;;;;1.40;0.90;;;23.50;54.10;;;;;;5012006;28;20025;-65
2022/07/06 12:36:51;;;;;;;1.65;1.13;;;23.50;54.10;;;;;;5010529;28;20026;-65
2022/07/06 12:39:19;;;;;;;2.58;0.95;;;23.50;54.40;;;;;;5012269;28;20115;-65
2022/07/06 12:42:00;;;;;;;2.47;1.10;;;23.40;54.30;;;;;;5004977;28;20022;-65
2022/07/06 12:44:26;;;;;;;1.67;1.10;;;23.40;54.70;;;;;;5013317;28;20040;-65
2022/07/06 12:47:03;;;;;;;5.28;0.90;;;23.40;55.00;;;;;;5011691;28;20022;-64
2022/07/06 12:49:30;;;;;;;2.45;1.40;;;23.60;55.80;;;;;;5012770;28;20030;-65
2022/07/06 12:52:02;;;;;;;3.35;1.10;;;23.70;55.00;;;;;;5012002;28;20030;-64
2022/07/06 12:54:41;;;;;;;2.95;1.08;;;23.90;54.60;;;;;;5014205;28;20018;-64